sensor_id;sensor_type;location;lat;lon;timestamp;P1;durP1;ratioP1;P2;durP2;ratioP2
7539;SDS011;3811;49.006;12.076;2022-08-14T00:00:23;7.77;;;7.17;;
7539;SDS011;3811;49.006;12.076;2022-08-14T00:02:52;7.93;;;7.30;;
7539;SDS011;3811;49.006;12.076;2022-08-14T00:05:20;9.07;;;7.23;;
7539;SDS011;3811;49.006;12.076;2022-08-14T00:07:47;7.43;;;6.83;;
7539;SDS011;3811;49.006;12.076;2022-08-14T00:10:17;8.23;;;7.43;;
7539;SDS011;3811;49.006;12.076;2022-08-14T00:12:47;7.73;;;7.03;;
7539;SDS011;3811;49.006;12.076;2022-08-14T00:15:18;8.00;;;7.23;;
7539;SDS011;3811;49.006;12.076;2022-08-14T00:17:48;7.50;;;6.90;;
7539;SDS011;3811;49.006;12.076;2022-08-14T00:20:21;7.40;;;6.80;;
7539;SDS011;3811;49.006;12.076;2022-08-14T00:22:51;8.17;;;7.47;;
7539;SDS011;3811;49.006;12.076;2022-08-14T00:25:18;7.87;;;7.17;;
7539;SDS011;3811;49.006;12.076;2022-08-14T00:27:46;7.60;;;6.90;;
7539;SDS011;3811;49.006;12.076;2022-08-14T00:30:13;7.93;;;7.23;;
7539;SDS011;3811;49.006;12.076;2022-08-14T00:32:41;8.90;;;7.83;;
7539;SDS011;3811;49.006;12.076;2022-08-14T00:35:08;8.07;;;7.37;;
7539;SDS011;3811;49.006;12.076;2022-08-14T00:37:38;7.70;;;7.00;;
7539;SDS011;3811;49.006;12.076;2022-08-14T00:40:07;8.70;;;7.93;;
7539;SDS011;3811;49.006;12.076;2022-08-14T00:42:35;8.40;;;7.70;;
7539;SDS011;3811;49.006;12.076;2022-08-14T00:45:04;8.17;;;7.37;;
7539;SDS011;3811;49.006;12.076;2022-08-14T00:47:32;8.00;;;7.27;;
7539;SDS011;3811;49.006;12.076;2022-08-14T00:50:00;10.17;;;7.13;;
7539;SDS011;3811;49.006;12.076;2022-08-14T00:52:28;8.63;;;7.77;;
7539;SDS011;3811;49.006;12.076;2022-08-14T00:54:57;8.73;;;7.93;;
7539;SDS011;3811;49.006;12.076;2022-08-14T00:57:25;8.73;;;7.83;;
7539;SDS011;3811;49.006;12.076;2022-08-14T00:59:54;9.30;;;7.93;;
7539;SDS011;3811;49.006;12.076;2022-08-14T01:02:21;8.80;;;8.00;;
7539;SDS011;3811;49.006;12.076;2022-08-14T01:04:50;8.30;;;7.50;;
7539;SDS011;3811;49.006;12.076;2022-08-14T01:07:19;8.03;;;7.23;;
7539;SDS011;3811;49.006;12.076;2022-08-14T01:09:47;8.23;;;7.17;;
7539;SDS011;3811;49.006;12.076;2022-08-14T01:12:17;8.37;;;7.57;;
7539;SDS011;3811;49.006;12.076;2022-08-14T01:14:44;8.70;;;7.90;;
7539;SDS011;3811;49.006;12.076;2022-08-14T01:17:12;7.80;;;7.10;;
7539;SDS011;3811;49.006;12.076;2022-08-14T01:19:39;8.30;;;7.50;;
7539;SDS011;3811;49.006;12.076;2022-08-14T01:22:25;7.87;;;7.17;;
7539;SDS011;3811;49.006;12.076;2022-08-14T01:24:52;8.80;;;7.90;;
7539;SDS011;3811;49.006;12.076;2022-08-14T01:27:21;8.10;;;7.30;;
7539;SDS011;3811;49.006;12.076;2022-08-14T01:29:50;7.63;;;6.93;;
7539;SDS011;3811;49.006;12.076;2022-08-14T01:32:19;7.97;;;7.17;;
7539;SDS011;3811;49.006;12.076;2022-08-14T01:34:47;8.20;;;7.50;;
7539;SDS011;3811;49.006;12.076;2022-08-14T01:37:15;8.13;;;7.43;;
7539;SDS011;3811;49.006;12.076;2022-08-14T01:39:44;7.97;;;6.83;;
7539;SDS011;3811;49.006;12.076;2022-08-14T01:42:11;7.40;;;6.80;;
7539;SDS011;3811;49.006;12.076;2022-08-14T01:44:39;7.90;;;7.20;;
7539;SDS011;3811;49.006;12.076;2022-08-14T01:47:07;9.33;;;7.73;;
7539;SDS011;3811;49.006;12.076;2022-08-14T01:49:38;8.20;;;7.40;;
7539;SDS011;3811;49.006;12.076;2022-08-14T01:52:05;8.00;;;7.30;;
7539;SDS011;3811;49.006;12.076;2022-08-14T01:54:33;8.40;;;7.60;;
7539;SDS011;3811;49.006;12.076;2022-08-14T01:57:02;8.43;;;7.63;;
7539;SDS011;3811;49.006;12.076;2022-08-14T01:59:36;8.47;;;7.67;;
7539;SDS011;3811;49.006;12.076;2022-08-14T02:02:06;8.20;;;7.50;;
7539;SDS011;3811;49.006;12.076;2022-08-14T02:04:37;7.93;;;7.23;;
7539;SDS011;3811;49.006;12.076;2022-08-14T02:07:05;7.93;;;7.23;;
7539;SDS011;3811;49.006;12.076;2022-08-14T02:09:34;8.43;;;7.73;;
7539;SDS011;3811;49.006;12.076;2022-08-14T02:12:05;8.27;;;7.57;;
7539;SDS011;3811;49.006;12.076;2022-08-14T02:14:33;8.17;;;7.50;;
7539;SDS011;3811;49.006;12.076;2022-08-14T02:17:00;7.80;;;7.10;;
7539;SDS011;3811;49.006;12.076;2022-08-14T02:19:29;9.90;;;7.90;;
7539;SDS011;3811;49.006;12.076;2022-08-14T02:21:59;8.87;;;8.07;;
7539;SDS011;3811;49.006;12.076;2022-08-14T02:24:29;7.80;;;7.10;;
7539;SDS011;3811;49.006;12.076;2022-08-14T02:26:56;8.47;;;7.77;;
7539;SDS011;3811;49.006;12.076;2022-08-14T02:29:26;8.20;;;7.50;;
7539;SDS011;3811;49.006;12.076;2022-08-14T02:31:56;8.37;;;7.47;;
7539;SDS011;3811;49.006;12.076;2022-08-14T02:34:26;8.67;;;7.80;;
7539;SDS011;3811;49.006;12.076;2022-08-14T02:36:57;8.77;;;7.27;;
7539;SDS011;3811;49.006;12.076;2022-08-14T02:39:27;8.50;;;7.60;;
7539;SDS011;3811;49.006;12.076;2022-08-14T02:41:54;8.07;;;7.27;;
7539;SDS011;3811;49.006;12.076;2022-08-14T02:44:22;8.67;;;7.87;;
7539;SDS011;3811;49.006;12.076;2022-08-14T02:46:52;8.37;;;7.57;;
7539;SDS011;3811;49.006;12.076;2022-08-14T02:49:21;8.30;;;7.50;;
7539;SDS011;3811;49.006;12.076;2022-08-14T02:51:50;7.67;;;6.97;;
7539;SDS011;3811;49.006;12.076;2022-08-14T02:54:18;8.20;;;7.23;;
7539;SDS011;3811;49.006;12.076;2022-08-14T02:56:45;8.27;;;7.57;;
7539;SDS011;3811;49.006;12.076;2022-08-14T02:59:13;7.90;;;7.20;;
7539;SDS011;3811;49.006;12.076;2022-08-14T03:01:41;7.53;;;6.83;;
7539;SDS011;3811;49.006;12.076;2022-08-14T03:04:11;8.57;;;7.70;;
7539;SDS011;3811;49.006;12.076;2022-08-14T03:06:38;8.20;;;7.40;;
7539;SDS011;3811;49.006;12.076;2022-08-14T03:09:07;8.20;;;7.40;;
7539;SDS011;3811;49.006;12.076;2022-08-14T03:11:35;8.70;;;7.80;;
7539;SDS011;3811;49.006;12.076;2022-08-14T03:14:02;8.93;;;8.13;;
7539;SDS011;3811;49.006;12.076;2022-08-14T03:16:30;8.43;;;7.63;;
7539;SDS011;3811;49.006;12.076;2022-08-14T03:19:00;8.83;;;7.90;;
7539;SDS011;3811;49.006;12.076;2022-08-14T03:21:29;8.60;;;7.80;;
7539;SDS011;3811;49.006;12.076;2022-08-14T03:23:57;9.47;;;8.57;;
7539;SDS011;3811;49.006;12.076;2022-08-14T03:26:34;8.60;;;7.77;;
7539;SDS011;3811;49.006;12.076;2022-08-14T03:29:02;8.70;;;7.80;;
7539;SDS011;3811;49.006;12.076;2022-08-14T03:31:29;8.20;;;7.40;;
7539;SDS011;3811;49.006;12.076;2022-08-14T03:33:57;8.80;;;7.63;;
7539;SDS011;3811;49.006;12.076;2022-08-14T03:36:24;8.67;;;7.90;;
7539;SDS011;3811;49.006;12.076;2022-08-14T03:38:53;9.10;;;8.30;;
7539;SDS011;3811;49.006;12.076;2022-08-14T03:41:22;8.87;;;7.60;;
7539;SDS011;3811;49.006;12.076;2022-08-14T03:43:52;10.97;;;8.70;;
7539;SDS011;3811;49.006;12.076;2022-08-14T03:46:20;11.00;;;9.93;;
7539;SDS011;3811;49.006;12.076;2022-08-14T03:51:20;13.23;;;10.27;;
7539;SDS011;3811;49.006;12.076;2022-08-14T03:53:50;10.97;;;9.80;;
7539;SDS011;3811;49.006;12.076;2022-08-14T03:56:19;16.63;;;10.40;;
7539;SDS011;3811;49.006;12.076;2022-08-14T03:58:48;11.13;;;9.90;;
7539;SDS011;3811;49.006;12.076;2022-08-14T04:01:17;12.10;;;10.27;;
7539;SDS011;3811;49.006;12.076;2022-08-14T04:03:45;10.70;;;9.67;;
7539;SDS011;3811;49.006;12.076;2022-08-14T04:06:13;10.47;;;9.37;;
7539;SDS011;3811;49.006;12.076;2022-08-14T04:08:40;12.20;;;10.07;;
7539;SDS011;3811;49.006;12.076;2022-08-14T04:11:10;10.63;;;9.53;;
7539;SDS011;3811;49.006;12.076;2022-08-14T04:13:38;10.13;;;9.13;;
7539;SDS011;3811;49.006;12.076;2022-08-14T04:16:07;10.37;;;9.27;;
7539;SDS011;3811;49.006;12.076;2022-08-14T04:18:37;10.77;;;9.23;;
7539;SDS011;3811;49.006;12.076;2022-08-14T04:21:05;9.70;;;8.70;;
7539;SDS011;3811;49.006;12.076;2022-08-14T04:23:32;10.23;;;8.97;;
7539;SDS011;3811;49.006;12.076;2022-08-14T04:26:00;10.77;;;9.77;;
7539;SDS011;3811;49.006;12.076;2022-08-14T04:28:29;10.73;;;9.57;;
7539;SDS011;3811;49.006;12.076;2022-08-14T04:30:57;9.93;;;9.00;;
7539;SDS011;3811;49.006;12.076;2022-08-14T04:33:24;9.63;;;8.63;;
7539;SDS011;3811;49.006;12.076;2022-08-14T04:35:53;10.57;;;9.23;;
7539;SDS011;3811;49.006;12.076;2022-08-14T04:38:21;10.13;;;8.40;;
7539;SDS011;3811;49.006;12.076;2022-08-14T04:41:06;9.30;;;8.23;;
7539;SDS011;3811;49.006;12.076;2022-08-14T04:43:52;9.47;;;8.47;;
7539;SDS011;3811;49.006;12.076;2022-08-14T04:46:29;10.13;;;9.17;;
7539;SDS011;3811;49.006;12.076;2022-08-14T04:48:59;10.63;;;9.63;;
7539;SDS011;3811;49.006;12.076;2022-08-14T04:51:26;10.33;;;9.33;;
7539;SDS011;3811;49.006;12.076;2022-08-14T04:53:54;11.13;;;10.03;;
7539;SDS011;3811;49.006;12.076;2022-08-14T04:56:22;11.07;;;9.93;;
7539;SDS011;3811;49.006;12.076;2022-08-14T04:58:52;11.40;;;10.30;;
7539;SDS011;3811;49.006;12.076;2022-08-14T05:01:22;10.50;;;9.50;;
7539;SDS011;3811;49.006;12.076;2022-08-14T05:03:49;11.50;;;10.40;;
7539;SDS011;3811;49.006;12.076;2022-08-14T05:06:17;11.63;;;10.53;;
7539;SDS011;3811;49.006;12.076;2022-08-14T05:08:44;11.07;;;10.07;;
7539;SDS011;3811;49.006;12.076;2022-08-14T05:11:12;10.20;;;9.30;;
7539;SDS011;3811;49.006;12.076;2022-08-14T05:13:40;11.97;;;10.77;;
7539;SDS011;3811;49.006;12.076;2022-08-14T05:16:09;11.10;;;10.00;;
7539;SDS011;3811;49.006;12.076;2022-08-14T05:18:37;11.33;;;10.00;;
7539;SDS011;3811;49.006;12.076;2022-08-14T05:21:05;10.87;;;9.77;;
7539;SDS011;3811;49.006;12.076;2022-08-14T05:23:34;10.70;;;9.70;;
7539;SDS011;3811;49.006;12.076;2022-08-14T05:26:05;10.97;;;9.87;;
7539;SDS011;3811;49.006;12.076;2022-08-14T05:28:39;10.83;;;9.83;;
7539;SDS011;3811;49.006;12.076;2022-08-14T05:31:11;9.73;;;8.83;;
7539;SDS011;3811;49.006;12.076;2022-08-14T05:33:42;10.70;;;9.53;;
7539;SDS011;3811;49.006;12.076;2022-08-14T05:36:09;10.53;;;9.53;;
7539;SDS011;3811;49.006;12.076;2022-08-14T05:38:37;9.73;;;8.73;;
7539;SDS011;3811;49.006;12.076;2022-08-14T05:41:07;10.67;;;9.67;;
7539;SDS011;3811;49.006;12.076;2022-08-14T05:43:36;9.33;;;8.43;;
7539;SDS011;3811;49.006;12.076;2022-08-14T05:46:04;10.53;;;9.47;;
7539;SDS011;3811;49.006;12.076;2022-08-14T05:48:33;9.73;;;8.77;;
7539;SDS011;3811;49.006;12.076;2022-08-14T05:51:00;10.23;;;9.23;;
7539;SDS011;3811;49.006;12.076;2022-08-14T05:53:28;9.27;;;8.47;;
7539;SDS011;3811;49.006;12.076;2022-08-14T05:55:55;10.17;;;9.17;;
7539;SDS011;3811;49.006;12.076;2022-08-14T05:58:23;9.03;;;8.20;;
7539;SDS011;3811;49.006;12.076;2022-08-14T06:00:51;9.50;;;8.60;;
7539;SDS011;3811;49.006;12.076;2022-08-14T06:03:20;10.00;;;9.03;;
7539;SDS011;3811;49.006;12.076;2022-08-14T06:05:50;10.07;;;9.07;;
7539;SDS011;3811;49.006;12.076;2022-08-14T06:08:19;9.20;;;8.33;;
7539;SDS011;3811;49.006;12.076;2022-08-14T06:10:47;9.63;;;8.77;;
7539;SDS011;3811;49.006;12.076;2022-08-14T06:13:15;9.00;;;8.20;;
7539;SDS011;3811;49.006;12.076;2022-08-14T06:15:42;8.97;;;8.13;;
7539;SDS011;3811;49.006;12.076;2022-08-14T06:18:10;9.33;;;8.37;;
7539;SDS011;3811;49.006;12.076;2022-08-14T06:20:37;10.00;;;8.93;;
7539;SDS011;3811;49.006;12.076;2022-08-14T06:23:06;9.47;;;8.47;;
7539;SDS011;3811;49.006;12.076;2022-08-14T06:25:33;9.07;;;8.17;;
7539;SDS011;3811;49.006;12.076;2022-08-14T06:28:00;9.90;;;8.13;;
7539;SDS011;3811;49.006;12.076;2022-08-14T06:30:28;8.80;;;8.00;;
7539;SDS011;3811;49.006;12.076;2022-08-14T06:32:59;8.50;;;7.80;;
7539;SDS011;3811;49.006;12.076;2022-08-14T06:35:26;9.10;;;8.20;;
7539;SDS011;3811;49.006;12.076;2022-08-14T06:37:54;8.27;;;7.57;;
7539;SDS011;3811;49.006;12.076;2022-08-14T06:40:25;8.13;;;7.40;;
7539;SDS011;3811;49.006;12.076;2022-08-14T06:42:54;9.70;;;8.13;;
7539;SDS011;3811;49.006;12.076;2022-08-14T06:45:22;8.67;;;7.73;;
7539;SDS011;3811;49.006;12.076;2022-08-14T06:47:50;8.60;;;7.80;;
7539;SDS011;3811;49.006;12.076;2022-08-14T06:50:18;9.77;;;8.20;;
7539;SDS011;3811;49.006;12.076;2022-08-14T06:52:46;8.73;;;8.03;;
7539;SDS011;3811;49.006;12.076;2022-08-14T06:55:14;9.03;;;8.23;;
7539;SDS011;3811;49.006;12.076;2022-08-14T06:57:44;8.60;;;7.80;;
7539;SDS011;3811;49.006;12.076;2022-08-14T07:00:12;8.53;;;7.83;;
7539;SDS011;3811;49.006;12.076;2022-08-14T07:02:41;8.57;;;7.70;;
7539;SDS011;3811;49.006;12.076;2022-08-14T07:05:25;8.70;;;7.90;;
7539;SDS011;3811;49.006;12.076;2022-08-14T07:08:13;8.17;;;7.47;;
7539;SDS011;3811;49.006;12.076;2022-08-14T07:10:42;7.77;;;7.07;;
7539;SDS011;3811;49.006;12.076;2022-08-14T07:13:11;7.40;;;6.70;;
7539;SDS011;3811;49.006;12.076;2022-08-14T07:15:39;7.90;;;7.20;;
7539;SDS011;3811;49.006;12.076;2022-08-14T07:18:09;7.47;;;6.77;;
7539;SDS011;3811;49.006;12.076;2022-08-14T07:20:37;7.33;;;6.73;;
7539;SDS011;3811;49.006;12.076;2022-08-14T07:23:06;7.07;;;6.47;;
7539;SDS011;3811;49.006;12.076;2022-08-14T07:25:35;6.60;;;6.00;;
7539;SDS011;3811;49.006;12.076;2022-08-14T07:28:07;7.17;;;6.47;;
7539;SDS011;3811;49.006;12.076;2022-08-14T07:30:37;7.43;;;6.67;;
7539;SDS011;3811;49.006;12.076;2022-08-14T07:33:05;7.40;;;6.70;;
7539;SDS011;3811;49.006;12.076;2022-08-14T07:35:32;8.00;;;7.30;;
7539;SDS011;3811;49.006;12.076;2022-08-14T07:38:01;8.77;;;6.37;;
7539;SDS011;3811;49.006;12.076;2022-08-14T07:40:28;6.97;;;6.37;;
7539;SDS011;3811;49.006;12.076;2022-08-14T07:42:56;8.17;;;7.47;;
7539;SDS011;3811;49.006;12.076;2022-08-14T07:45:24;7.83;;;7.23;;
7539;SDS011;3811;49.006;12.076;2022-08-14T07:47:53;8.60;;;7.77;;
7539;SDS011;3811;49.006;12.076;2022-08-14T07:50:22;7.87;;;7.13;;
7539;SDS011;3811;49.006;12.076;2022-08-14T07:52:49;8.03;;;7.33;;
7539;SDS011;3811;49.006;12.076;2022-08-14T07:55:17;7.83;;;7.13;;
7539;SDS011;3811;49.006;12.076;2022-08-14T07:57:45;7.80;;;7.10;;
7539;SDS011;3811;49.006;12.076;2022-08-14T08:00:13;7.73;;;7.03;;
7539;SDS011;3811;49.006;12.076;2022-08-14T08:02:43;7.97;;;7.27;;
7539;SDS011;3811;49.006;12.076;2022-08-14T08:05:13;7.83;;;7.23;;
7539;SDS011;3811;49.006;12.076;2022-08-14T08:07:43;7.23;;;6.63;;
7539;SDS011;3811;49.006;12.076;2022-08-14T08:10:11;8.33;;;7.50;;
7539;SDS011;3811;49.006;12.076;2022-08-14T08:13:00;8.60;;;7.07;;
7539;SDS011;3811;49.006;12.076;2022-08-14T08:15:30;8.03;;;7.33;;
7539;SDS011;3811;49.006;12.076;2022-08-14T08:17:59;7.60;;;6.87;;
7539;SDS011;3811;49.006;12.076;2022-08-14T08:20:30;7.23;;;6.63;;
7539;SDS011;3811;49.006;12.076;2022-08-14T08:22:59;8.50;;;7.70;;
7539;SDS011;3811;49.006;12.076;2022-08-14T08:25:27;8.07;;;7.27;;
7539;SDS011;3811;49.006;12.076;2022-08-14T08:27:56;6.87;;;6.27;;
7539;SDS011;3811;49.006;12.076;2022-08-14T08:30:25;6.60;;;6.10;;
7539;SDS011;3811;49.006;12.076;2022-08-14T08:32:54;7.50;;;6.53;;
7539;SDS011;3811;49.006;12.076;2022-08-14T08:35:23;8.27;;;6.67;;
7539;SDS011;3811;49.006;12.076;2022-08-14T08:37:53;7.37;;;6.80;;
7539;SDS011;3811;49.006;12.076;2022-08-14T08:40:27;6.50;;;6.00;;
7539;SDS011;3811;49.006;12.076;2022-08-14T08:42:55;7.27;;;6.67;;
7539;SDS011;3811;49.006;12.076;2022-08-14T08:45:23;6.90;;;6.37;;
7539;SDS011;3811;49.006;12.076;2022-08-14T08:47:50;7.73;;;6.40;;
7539;SDS011;3811;49.006;12.076;2022-08-14T08:50:18;7.00;;;6.40;;
7539;SDS011;3811;49.006;12.076;2022-08-14T08:52:48;6.10;;;5.67;;
7539;SDS011;3811;49.006;12.076;2022-08-14T08:55:22;6.03;;;5.53;;
7539;SDS011;3811;49.006;12.076;2022-08-14T08:57:53;6.43;;;5.93;;
7539;SDS011;3811;49.006;12.076;2022-08-14T09:00:21;6.33;;;5.83;;
7539;SDS011;3811;49.006;12.076;2022-08-14T09:02:55;6.93;;;6.37;;
7539;SDS011;3811;49.006;12.076;2022-08-14T09:05:28;7.37;;;6.03;;
7539;SDS011;3811;49.006;12.076;2022-08-14T09:08:09;7.00;;;6.40;;
7539;SDS011;3811;49.006;12.076;2022-08-14T09:10:38;6.40;;;5.90;;
7539;SDS011;3811;49.006;12.076;2022-08-14T09:13:05;5.50;;;5.10;;
7539;SDS011;3811;49.006;12.076;2022-08-14T09:15:32;6.43;;;5.83;;
7539;SDS011;3811;49.006;12.076;2022-08-14T09:17:59;6.03;;;5.63;;
7539;SDS011;3811;49.006;12.076;2022-08-14T09:20:27;6.57;;;5.70;;
7539;SDS011;3811;49.006;12.076;2022-08-14T09:22:54;5.97;;;5.27;;
7539;SDS011;3811;49.006;12.076;2022-08-14T09:25:23;6.87;;;6.27;;
7539;SDS011;3811;49.006;12.076;2022-08-14T09:27:52;6.70;;;6.20;;
7539;SDS011;3811;49.006;12.076;2022-08-14T09:30:20;7.07;;;5.33;;
7539;SDS011;3811;49.006;12.076;2022-08-14T09:32:51;6.27;;;5.63;;
7539;SDS011;3811;49.006;12.076;2022-08-14T09:35:32;5.17;;;4.77;;
7539;SDS011;3811;49.006;12.076;2022-08-14T09:38:10;6.13;;;5.63;;
7539;SDS011;3811;49.006;12.076;2022-08-14T09:40:50;6.27;;;5.77;;
7539;SDS011;3811;49.006;12.076;2022-08-14T09:43:27;5.53;;;5.13;;
7539;SDS011;3811;49.006;12.076;2022-08-14T09:45:57;6.10;;;5.70;;
7539;SDS011;3811;49.006;12.076;2022-08-14T09:48:25;5.77;;;5.33;;
7539;SDS011;3811;49.006;12.076;2022-08-14T09:50:53;6.30;;;5.80;;
7539;SDS011;3811;49.006;12.076;2022-08-14T09:53:35;5.90;;;5.33;;
7539;SDS011;3811;49.006;12.076;2022-08-14T09:56:06;5.97;;;5.47;;
7539;SDS011;3811;49.006;12.076;2022-08-14T09:58:36;5.33;;;4.83;;
7539;SDS011;3811;49.006;12.076;2022-08-14T10:01:09;5.90;;;5.40;;
7539;SDS011;3811;49.006;12.076;2022-08-14T10:03:37;5.00;;;4.60;;
7539;SDS011;3811;49.006;12.076;2022-08-14T10:06:15;5.17;;;4.73;;
7539;SDS011;3811;49.006;12.076;2022-08-14T10:08:44;5.50;;;5.00;;
7539;SDS011;3811;49.006;12.076;2022-08-14T10:11:18;5.87;;;5.47;;
7539;SDS011;3811;49.006;12.076;2022-08-14T10:13:50;5.30;;;4.90;;
7539;SDS011;3811;49.006;12.076;2022-08-14T10:16:19;5.63;;;5.23;;
7539;SDS011;3811;49.006;12.076;2022-08-14T10:18:59;4.83;;;4.43;;
7539;SDS011;3811;49.006;12.076;2022-08-14T10:21:28;5.00;;;4.60;;
7539;SDS011;3811;49.006;12.076;2022-08-14T10:23:58;4.43;;;4.13;;
7539;SDS011;3811;49.006;12.076;2022-08-14T10:26:25;4.03;;;3.73;;
7539;SDS011;3811;49.006;12.076;2022-08-14T10:29:02;5.07;;;4.53;;
7539;SDS011;3811;49.006;12.076;2022-08-14T10:31:31;4.50;;;4.10;;
7539;SDS011;3811;49.006;12.076;2022-08-14T10:33:59;4.70;;;4.30;;
7539;SDS011;3811;49.006;12.076;2022-08-14T10:39:03;4.73;;;4.33;;
7539;SDS011;3811;49.006;12.076;2022-08-14T10:41:35;5.17;;;3.97;;
7539;SDS011;3811;49.006;12.076;2022-08-14T10:44:10;5.30;;;4.80;;
7539;SDS011;3811;49.006;12.076;2022-08-14T10:46:41;5.40;;;4.90;;
7539;SDS011;3811;49.006;12.076;2022-08-14T10:49:18;5.50;;;5.10;;
7539;SDS011;3811;49.006;12.076;2022-08-14T10:51:59;6.28;;;4.90;;
7539;SDS011;3811;49.006;12.076;2022-08-14T10:54:31;6.55;;;5.90;;
7539;SDS011;3811;49.006;12.076;2022-08-14T10:57:10;5.13;;;4.72;;
7539;SDS011;3811;49.006;12.076;2022-08-14T10:59:45;7.32;;;5.60;;
7539;SDS011;3811;49.006;12.076;2022-08-14T11:02:18;5.55;;;5.05;;
7539;SDS011;3811;49.006;12.076;2022-08-14T11:05:01;4.93;;;4.53;;
7539;SDS011;3811;49.006;12.076;2022-08-14T11:07:33;5.18;;;4.78;;
7539;SDS011;3811;49.006;12.076;2022-08-14T11:10:05;5.25;;;4.85;;
7539;SDS011;3811;49.006;12.076;2022-08-14T11:12:39;5.10;;;4.60;;
7539;SDS011;3811;49.006;12.076;2022-08-14T11:15:14;5.72;;;5.22;;
7539;SDS011;3811;49.006;12.076;2022-08-14T11:17:43;5.60;;;5.20;;
7539;SDS011;3811;49.006;12.076;2022-08-14T11:20:11;5.00;;;4.60;;
7539;SDS011;3811;49.006;12.076;2022-08-14T11:22:39;5.50;;;5.03;;
7539;SDS011;3811;49.006;12.076;2022-08-14T11:25:08;5.72;;;5.32;;
7539;SDS011;3811;49.006;12.076;2022-08-14T11:27:38;4.95;;;4.65;;
7539;SDS011;3811;49.006;12.076;2022-08-14T11:30:08;5.72;;;4.80;;
7539;SDS011;3811;49.006;12.076;2022-08-14T11:32:39;5.72;;;5.22;;
7539;SDS011;3811;49.006;12.076;2022-08-14T11:35:13;5.45;;;4.90;;
7539;SDS011;3811;49.006;12.076;2022-08-14T11:37:48;5.88;;;5.32;;
7539;SDS011;3811;49.006;12.076;2022-08-14T11:40:17;5.20;;;4.80;;
7539;SDS011;3811;49.006;12.076;2022-08-14T11:42:45;5.85;;;5.35;;
7539;SDS011;3811;49.006;12.076;2022-08-14T11:45:13;5.68;;;5.28;;
7539;SDS011;3811;49.006;12.076;2022-08-14T11:47:43;5.82;;;5.15;;
7539;SDS011;3811;49.006;12.076;2022-08-14T11:50:11;6.28;;;5.78;;
7539;SDS011;3811;49.006;12.076;2022-08-14T11:52:38;5.72;;;5.22;;
7539;SDS011;3811;49.006;12.076;2022-08-14T11:55:07;5.50;;;5.10;;
7539;SDS011;3811;49.006;12.076;2022-08-14T11:57:37;5.40;;;4.97;;
7539;SDS011;3811;49.006;12.076;2022-08-14T12:00:05;5.68;;;5.28;;
7539;SDS011;3811;49.006;12.076;2022-08-14T12:02:34;7.50;;;6.90;;
7539;SDS011;3811;49.006;12.076;2022-08-14T12:05:04;6.03;;;5.53;;
7539;SDS011;3811;49.006;12.076;2022-08-14T12:07:33;5.65;;;5.25;;
7539;SDS011;3811;49.006;12.076;2022-08-14T12:10:00;7.25;;;4.78;;
7539;SDS011;3811;49.006;12.076;2022-08-14T12:12:28;5.65;;;5.15;;
7539;SDS011;3811;49.006;12.076;2022-08-14T12:14:57;5.25;;;4.85;;
7539;SDS011;3811;49.006;12.076;2022-08-14T12:17:25;5.70;;;4.85;;
7539;SDS011;3811;49.006;12.076;2022-08-14T12:19:54;5.18;;;4.72;;
7539;SDS011;3811;49.006;12.076;2022-08-14T12:22:34;5.70;;;5.10;;
7539;SDS011;3811;49.006;12.076;2022-08-14T12:25:03;5.32;;;4.93;;
7539;SDS011;3811;49.006;12.076;2022-08-14T12:27:36;6.45;;;5.82;;
7539;SDS011;3811;49.006;12.076;2022-08-14T12:30:08;5.70;;;5.22;;
7539;SDS011;3811;49.006;12.076;2022-08-14T12:32:41;5.20;;;4.70;;
7539;SDS011;3811;49.006;12.076;2022-08-14T12:35:11;4.97;;;4.57;;
7539;SDS011;3811;49.006;12.076;2022-08-14T12:37:45;5.97;;;5.47;;
7539;SDS011;3811;49.006;12.076;2022-08-14T12:40:14;5.70;;;5.20;;
7539;SDS011;3811;49.006;12.076;2022-08-14T12:42:43;6.07;;;5.57;;
7539;SDS011;3811;49.006;12.076;2022-08-14T12:45:11;5.20;;;4.80;;
7539;SDS011;3811;49.006;12.076;2022-08-14T12:47:39;5.50;;;5.10;;
7539;SDS011;3811;49.006;12.076;2022-08-14T12:50:07;5.20;;;4.80;;
7539;SDS011;3811;49.006;12.076;2022-08-14T12:52:35;5.03;;;4.60;;
7539;SDS011;3811;49.006;12.076;2022-08-14T12:55:07;5.20;;;4.80;;
7539;SDS011;3811;49.006;12.076;2022-08-14T12:57:37;5.25;;;4.88;;
7539;SDS011;3811;49.006;12.076;2022-08-14T13:00:11;5.25;;;4.75;;
7539;SDS011;3811;49.006;12.076;2022-08-14T13:02:43;5.13;;;4.75;;
7539;SDS011;3811;49.006;12.076;2022-08-14T13:05:12;5.15;;;4.82;;
7539;SDS011;3811;49.006;12.076;2022-08-14T13:07:40;5.15;;;4.75;;
7539;SDS011;3811;49.006;12.076;2022-08-14T13:10:10;4.95;;;4.53;;
7539;SDS011;3811;49.006;12.076;2022-08-14T13:12:38;5.28;;;4.80;;
7539;SDS011;3811;49.006;12.076;2022-08-14T13:15:07;4.88;;;4.50;;
7539;SDS011;3811;49.006;12.076;2022-08-14T13:17:38;5.65;;;4.68;;
7539;SDS011;3811;49.006;12.076;2022-08-14T13:20:08;5.70;;;5.20;;
7539;SDS011;3811;49.006;12.076;2022-08-14T13:22:37;4.95;;;4.55;;
7539;SDS011;3811;49.006;12.076;2022-08-14T13:25:07;5.75;;;5.25;;
7539;SDS011;3811;49.006;12.076;2022-08-14T13:27:37;5.55;;;4.72;;
7539;SDS011;3811;49.006;12.076;2022-08-14T13:30:07;4.70;;;4.30;;
7539;SDS011;3811;49.006;12.076;2022-08-14T13:32:36;5.03;;;4.70;;
7539;SDS011;3811;49.006;12.076;2022-08-14T13:35:05;5.50;;;5.10;;
7539;SDS011;3811;49.006;12.076;2022-08-14T13:37:33;5.43;;;5.00;;
7539;SDS011;3811;49.006;12.076;2022-08-14T13:40:00;5.53;;;5.13;;
7539;SDS011;3811;49.006;12.076;2022-08-14T13:42:31;5.40;;;4.97;;
7539;SDS011;3811;49.006;12.076;2022-08-14T13:44:59;5.18;;;4.78;;
7539;SDS011;3811;49.006;12.076;2022-08-14T13:47:28;5.00;;;4.60;;
7539;SDS011;3811;49.006;12.076;2022-08-14T13:49:57;5.45;;;5.05;;
7539;SDS011;3811;49.006;12.076;2022-08-14T13:52:29;5.45;;;4.95;;
7539;SDS011;3811;49.006;12.076;2022-08-14T13:55:00;5.82;;;5.40;;
7539;SDS011;3811;49.006;12.076;2022-08-14T13:57:32;6.50;;;5.50;;
7539;SDS011;3811;49.006;12.076;2022-08-14T14:00:02;6.15;;;5.65;;
7539;SDS011;3811;49.006;12.076;2022-08-14T14:02:37;6.40;;;5.97;;
7539;SDS011;3811;49.006;12.076;2022-08-14T14:05:06;6.60;;;6.00;;
7539;SDS011;3811;49.006;12.076;2022-08-14T14:07:44;5.97;;;5.57;;
7539;SDS011;3811;49.006;12.076;2022-08-14T14:10:14;6.10;;;5.60;;
7539;SDS011;3811;49.006;12.076;2022-08-14T14:12:44;6.35;;;5.88;;
7539;SDS011;3811;49.006;12.076;2022-08-14T14:15:12;7.25;;;6.68;;
7539;SDS011;3811;49.006;12.076;2022-08-14T14:17:42;6.40;;;5.90;;
7539;SDS011;3811;49.006;12.076;2022-08-14T14:20:12;6.32;;;5.82;;
7539;SDS011;3811;49.006;12.076;2022-08-14T14:22:40;5.60;;;5.20;;
7539;SDS011;3811;49.006;12.076;2022-08-14T14:25:08;5.95;;;5.55;;
7539;SDS011;3811;49.006;12.076;2022-08-14T14:27:39;5.90;;;5.40;;
7539;SDS011;3811;49.006;12.076;2022-08-14T14:30:11;6.55;;;6.03;;
7539;SDS011;3811;49.006;12.076;2022-08-14T14:32:39;5.90;;;5.40;;
7539;SDS011;3811;49.006;12.076;2022-08-14T14:35:10;5.78;;;5.28;;
7539;SDS011;3811;49.006;12.076;2022-08-14T14:37:39;5.65;;;5.20;;
7539;SDS011;3811;49.006;12.076;2022-08-14T14:40:08;5.38;;;4.97;;
7539;SDS011;3811;49.006;12.076;2022-08-14T14:42:36;6.03;;;5.43;;
7539;SDS011;3811;49.006;12.076;2022-08-14T14:45:12;5.82;;;5.13;;
7539;SDS011;3811;49.006;12.076;2022-08-14T14:47:42;5.43;;;5.03;;
7539;SDS011;3811;49.006;12.076;2022-08-14T14:50:11;5.55;;;5.13;;
7539;SDS011;3811;49.006;12.076;2022-08-14T14:52:39;5.60;;;5.10;;
7539;SDS011;3811;49.006;12.076;2022-08-14T14:55:07;5.75;;;5.25;;
7539;SDS011;3811;49.006;12.076;2022-08-14T14:57:37;5.35;;;4.95;;
7539;SDS011;3811;49.006;12.076;2022-08-14T15:00:06;5.03;;;4.63;;
7539;SDS011;3811;49.006;12.076;2022-08-14T15:02:38;5.95;;;4.90;;
7539;SDS011;3811;49.006;12.076;2022-08-14T15:05:07;5.60;;;5.20;;
7539;SDS011;3811;49.006;12.076;2022-08-14T15:07:35;5.55;;;5.15;;
7539;SDS011;3811;49.006;12.076;2022-08-14T15:10:03;5.72;;;5.32;;
7539;SDS011;3811;49.006;12.076;2022-08-14T15:12:31;5.65;;;5.10;;
7539;SDS011;3811;49.006;12.076;2022-08-14T15:14:58;5.55;;;5.15;;
7539;SDS011;3811;49.006;12.076;2022-08-14T15:17:25;5.60;;;5.20;;
7539;SDS011;3811;49.006;12.076;2022-08-14T15:20:02;5.72;;;5.30;;